<?xml version='1.0' encoding='UTF-8'?>
<gpx xmlns="http://www.topografix.com/GPX/1/1" creator="www.balnam.be" version="1.1" xmlns:xsi="http://www.w3.org/2001/XMLSchema-instance" xsi:schemaLocation="http://www.topografix.com/GPX/1/1 http://www.topografix.com/GPX/1/1/gpx.xsd">
<trk>
<name>ltxlr22</name>
<cmt>v</cmt>
<desc>La Reid Chemin n°22 Rue Canada / Rue Les Cours / Rue Jehoster / Chemin du Vert Buisson / Chemin du Pré Joanne / Rue Vert Buisson</desc>
<link href="https://chemins.be/lareid/chemin/22"/><trkseg>
<trkpt lat="50.491622" lon="5.811017"><time>2026-05-02T19:01:26Z</time></trkpt>
<trkpt lat="50.489877" lon="5.809572"><time>2026-05-02T19:11:26Z</time></trkpt>
<trkpt lat="50.489210" lon="5.808653"><time>2026-05-02T19:21:26Z</time></trkpt>
</trkseg></trk>
<trk>
<name>ltxlr22</name>
<cmt>r</cmt>
<desc>La Reid Chemin n°22 Rue Canada / Rue Les Cours / Rue Jehoster / Chemin du Vert Buisson / Chemin du Pré Joanne / Rue Vert Buisson</desc>
<link href="https://chemins.be/lareid/chemin/22"/><trkseg>
<trkpt lat="50.489210" lon="5.808653"><time>2026-05-02T19:21:26Z</time></trkpt>
<trkpt lat="50.488992" lon="5.808721"><time>2026-05-02T19:31:26Z</time></trkpt>
<trkpt lat="50.486189" lon="5.805008"><time>2026-05-02T19:41:26Z</time></trkpt>
<trkpt lat="50.483609" lon="5.801539"><time>2026-05-02T19:51:26Z</time></trkpt>
<trkpt lat="50.481051" lon="5.800581"><time>2026-05-02T20:01:26Z</time></trkpt>
<trkpt lat="50.479881" lon="5.799072"><time>2026-05-02T20:11:26Z</time></trkpt>
<trkpt lat="50.477929" lon="5.798156"><time>2026-05-02T20:21:26Z</time></trkpt>
<trkpt lat="50.476832" lon="5.797770"><time>2026-05-02T20:31:26Z</time></trkpt>
<trkpt lat="50.475389" lon="5.795596"><time>2026-05-02T20:41:26Z</time></trkpt>
<trkpt lat="50.475020" lon="5.794866"><time>2026-05-02T20:51:26Z</time></trkpt>
<trkpt lat="50.474947" lon="5.794519"><time>2026-05-02T21:01:26Z</time></trkpt>
</trkseg></trk>
<trk>
<name>ltxlr22</name>
<cmt>v</cmt>
<desc>La Reid Chemin n°22 Rue Canada / Rue Les Cours / Rue Jehoster / Chemin du Vert Buisson / Chemin du Pré Joanne / Rue Vert Buisson</desc>
<link href="https://chemins.be/lareid/chemin/22"/><trkseg>
<trkpt lat="50.474947" lon="5.794519"><time>2026-05-02T21:01:26Z</time></trkpt>
<trkpt lat="50.474631" lon="5.794437"><time>2026-05-02T21:11:26Z</time></trkpt>
<trkpt lat="50.474482" lon="5.794287"><time>2026-05-02T21:21:26Z</time></trkpt>
<trkpt lat="50.474415" lon="5.794169"><time>2026-05-02T21:31:26Z</time></trkpt>
<trkpt lat="50.474205" lon="5.793749"><time>2026-05-02T21:41:26Z</time></trkpt>
<trkpt lat="50.473775" lon="5.792919"><time>2026-05-02T21:51:26Z</time></trkpt>
<trkpt lat="50.473405" lon="5.791749"><time>2026-05-02T22:01:26Z</time></trkpt>
<trkpt lat="50.473025" lon="5.791249"><time>2026-05-02T22:11:26Z</time></trkpt>
<trkpt lat="50.471915" lon="5.790399"><time>2026-05-02T22:21:26Z</time></trkpt>
</trkseg></trk>
<trk>
<name>ltxlr22</name>
<cmt>d</cmt>
<desc>La Reid Chemin n°22 Rue Canada / Rue Les Cours / Rue Jehoster / Chemin du Vert Buisson / Chemin du Pré Joanne / Rue Vert Buisson</desc>
<link href="https://chemins.be/lareid/chemin/22"/><trkseg>
<trkpt lat="50.471915" lon="5.790399"><time>2026-05-02T22:21:26Z</time></trkpt>
<trkpt lat="50.471625" lon="5.789799"><time>2026-05-02T22:31:26Z</time></trkpt>
<trkpt lat="50.470555" lon="5.788524"><time>2026-05-02T22:41:26Z</time></trkpt>
</trkseg></trk>
<trk>
<name>ltxlr22</name>
<cmt>v</cmt>
<desc>La Reid Chemin n°22 Rue Canada / Rue Les Cours / Rue Jehoster / Chemin du Vert Buisson / Chemin du Pré Joanne / Rue Vert Buisson</desc>
<link href="https://chemins.be/lareid/chemin/22"/><trkseg>
<trkpt lat="50.470555" lon="5.788524"><time>2026-05-02T22:41:26Z</time></trkpt>
<trkpt lat="50.470525" lon="5.788459"><time>2026-05-02T22:51:26Z</time></trkpt>
<trkpt lat="50.469695" lon="5.787049"><time>2026-05-02T23:01:26Z</time></trkpt>
<trkpt lat="50.468675" lon="5.786059"><time>2026-05-02T23:11:26Z</time></trkpt>
<trkpt lat="50.466765" lon="5.785249"><time>2026-05-02T23:21:26Z</time></trkpt>
<trkpt lat="50.465565" lon="5.785509"><time>2026-05-02T23:31:26Z</time></trkpt>
<trkpt lat="50.463651" lon="5.784840"><time>2026-05-02T23:41:26Z</time></trkpt>
<trkpt lat="50.463088" lon="5.784796"><time>2026-05-02T23:51:26Z</time></trkpt>
<trkpt lat="50.462695" lon="5.784844"><time>2026-05-03T00:01:26Z</time></trkpt>
<trkpt lat="50.462146" lon="5.784883"><time>2026-05-03T00:11:26Z</time></trkpt>
<trkpt lat="50.461606" lon="5.784809"><time>2026-05-03T00:21:26Z</time></trkpt>
</trkseg>
</trk>
</gpx>